Time,TemperatureF,DewpointF,PressureIn,WindDirection,WindDirectionDegrees,WindSpeedMPH,WindSpeedGustMPH,Humidity,HourlyPrecipIn,Conditions,Clouds,dailyrainin,SoftwareType,DateUTC
2013-03-18 00:00:00,41.4,40.3,29.00,ENE,76,1.0,5.0,96,0.00,CLR,SKC,0.00,WeatherDisplay:10.37,2013-03-18 04:00:00,
2013-03-18 00:05:00,41.4,40.3,29.00,SE,135,2.3,2.3,96,0.00,CLR,SKC,0.00,WeatherDisplay:10.37,2013-03-18 04:05:00,
2013-03-18 00:10:00,41.4,40.0,29.00,NNE,22,2.3,2.3,95,0.00,CLR,SKC,0.00,WeatherDisplay:10.37,2013-03-18 04:10:00,
2013-03-18 00:15:00,41.4,40.0,29.00,SE,135,3.5,3.5,95,0.00,CLR,SKC,0.00,WeatherDisplay:10.37,2013-03-18 04:15:00,
2013-03-18 00:20:00,41.2,39.9,29.00,NE,45,3.5,3.5,95,0.00,CLR,SKC,0.00,WeatherDisplay:10.37,2013-03-18 04:20:00,
2013-03-18 00:25:00,41.2,39.9,29.00,South,180,3.5,0.0,95,0.00,CLR,SKC,0.00,WeatherDisplay:10.37,2013-03-18 04:25:00,
2013-03-18 00:30:00,41.0,39.7,29.01,SE,135,2.3,2.3,95,0.00,CLR,SKC,0.00,WeatherDisplay:10.37,2013-03-18 04:30:00,
2013-03-18 00:35:00,41.0,39.7,29.01,SW,225,3.5,3.5,95,0.00,CLR,SKC,0.00,WeatherDisplay:10.37,2013-03-18 04:35:00,
2013-03-18 00:40:00,40.8,39.2,29.01,NE,45,3.5,3.5,94,0.00,CLR,SKC,0.00,WeatherDisplay:10.37,2013-03-18 04:40:00,
2013-03-18 00:45:00,40.8,39.2,29.01,NE,45,2.3,2.3,94,0.00,CLR,SKC,0.00,WeatherDisplay:10.37,2013-03-18 04:45:00,
2013-03-18 00:50:00,40.6,39.0,29.01,SE,135,3.5,3.5,94,0.00,CLR,SKC,0.00,WeatherDisplay:10.37,2013-03-18 04:50:00,
2013-03-18 00:55:00,40.6,39.0,29.01,NW,315,5.8,5.8,94,0.00,CLR,SKC,0.00,WeatherDisplay:10.37,2013-03-18 04:55:00,
2013-03-18 01:00:00,40.5,38.9,29.01,North,0,2.3,2.3,94,0.00,CLR,SKC,0.00,WeatherDisplay:10.37,2013-03-18 05:00:00,
2013-03-18 01:05:00,40.5,39.1,29.01,NW,315,2.3,3.1,95,0.00,CLR,SKC,0.00,WeatherDisplay:10.37,2013-03-18 05:05:00,
2013-03-18 01:10:00,40.5,39.1,29.01,SW,225,3.5,3.5,95,0.00,CLR,SKC,0.00,WeatherDisplay:10.37,2013-03-18 05:10:00,
2013-03-18 01:16:00,40.3,39.2,29.01,South,180,2.3,2.3,96,0.00,CLR,SKC,0.00,WeatherDisplay:10.37,2013-03-18 05:16:00,
2013-03-18 01:21:00,40.3,39.5,29.01,SE,135,3.5,3.5,97,0.00,CLR,SKC,0.00,WeatherDisplay:10.37,2013-03-18 05:21:00,
2013-03-18 01:26:00,40.1,39.3,29.02,NE,45,3.5,3.5,97,0.00,CLR,SKC,0.00,WeatherDisplay:10.37,2013-03-18 05:26:00,
2013-03-18 01:31:00,39.9,39.1,29.02,South,180,3.5,3.5,97,0.00,CLR,SKC,0.00,WeatherDisplay:10.37,2013-03-18 05:31:00,
2013-03-18 01:36:00,39.9,39.1,29.02,West,270,2.3,2.3,97,0.00,CLR,SKC,0.00,WeatherDisplay:10.37,2013-03-18 05:36:00,
2013-03-18 01:41:00,39.7,39.0,29.02,SE,135,2.3,2.3,97,0.00,CLR,SKC,0.00,WeatherDisplay:10.37,2013-03-18 05:41:00,
2013-03-18 01:46:00,39.7,39.0,29.02,North,0,3.5,3.5,97,0.00,CLR,SKC,0.00,WeatherDisplay:10.37,2013-03-18 05:46:00,
2013-03-18 01:51:00,39.6,38.8,29.02,South,180,4.6,4.6,97,0.00,CLR,SKC,0.00,WeatherDisplay:10.37,2013-03-18 05:51:00,
2013-03-18 01:56:00,39.6,38.5,29.02,SSE,158,2.3,2.3,96,0.00,CLR,SKC,0.00,WeatherDisplay:10.37,2013-03-18 05:56:00,
2013-03-18 02:01:00,39.6,38.5,29.02,NE,45,2.3,2.3,96,0.00,CLR,SKC,0.00,WeatherDisplay:10.37,2013-03-18 06:01:00,
2013-03-18 02:06:00,39.6,38.5,29.02,NE,45,2.3,2.3,96,0.00,CLR,SKC,0.00,WeatherDisplay:10.37,2013-03-18 06:06:00,
2013-03-18 02:11:00,39.6,38.5,29.02,SE,135,3.5,3.5,96,0.00,CLR,SKC,0.00,WeatherDisplay:10.37,2013-03-18 06:11:00,
2013-03-18 02:16:00,39.6,38.5,29.02,North,0,3.5,3.5,96,0.00,CLR,SKC,0.00,WeatherDisplay:10.37,2013-03-18 06:16:00,
2013-03-18 02:21:00,39.4,38.3,29.02,SE,135,1.1,0.0,96,0.00,CLR,SKC,0.00,WeatherDisplay:10.37,2013-03-18 06:21:00,
2013-03-18 02:26:00,39.4,38.3,29.02,South,180,3.5,3.5,96,0.00,CLR,SKC,0.00,WeatherDisplay:10.37,2013-03-18 06:26:00,
2013-03-18 02:31:00,39.4,38.3,29.02,South,180,3.5,0.0,96,0.00,CLR,SKC,0.00,WeatherDisplay:10.37,2013-03-18 06:31:00,
2013-03-18 02:36:00,39.4,38.6,29.02,North,0,2.3,2.3,97,0.00,CLR,SKC,0.00,WeatherDisplay:10.37,2013-03-18 06:36:00,
2013-03-18 02:42:00,39.2,38.4,29.02,North,0,3.5,3.5,97,0.00,CLR,SKC,0.00,WeatherDisplay:10.37,2013-03-18 06:42:00,
2013-03-18 02:47:00,39.2,38.4,29.03,NE,45,3.5,3.5,97,0.00,CLR,SKC,0.00,WeatherDisplay:10.37,2013-03-18 06:47:00,
2013-03-18 02:52:00,39.2,38.4,29.03,North,0,1.1,0.0,97,0.00,CLR,SKC,0.00,WeatherDisplay:10.37,2013-03-18 06:52:00,
2013-03-18 02:57:00,39.0,38.2,29.02,NE,45,3.5,0.0,97,0.00,CLR,SKC,0.00,WeatherDisplay:10.37,2013-03-18 06:57:00,
2013-03-18 03:02:00,39.0,38.2,29.02,North,0,3.5,3.5,97,0.00,CLR,SKC,0.00,WeatherDisplay:10.37,2013-03-18 07:02:00,
2013-03-18 03:07:00,38.8,38.1,29.02,SE,135,3.5,3.5,97,0.00,CLR,SKC,0.00,WeatherDisplay:10.37,2013-03-18 07:07:00,
2013-03-18 03:12:00,38.8,38.1,29.03,East,90,1.1,0.0,97,0.00,CLR,SKC,0.00,WeatherDisplay:10.37,2013-03-18 07:12:00,
2013-03-18 03:18:00,38.8,38.1,29.02,North,0,1.1,1.6,97,0.00,CLR,SKC,0.00,WeatherDisplay:10.37,2013-03-18 07:18:00,
2013-03-18 03:23:00,38.5,38.0,29.03,NE,45,4.6,4.6,98,0.00,CLR,SKC,0.00,WeatherDisplay:10.37,2013-03-18 07:23:00,
2013-03-18 03:28:00,38.5,38.2,29.03,NE,45,2.3,2.3,99,0.00,CLR,SKC,0.00,WeatherDisplay:10.37,2013-03-18 07:28:00,
2013-03-18 03:33:00,38.3,38.0,29.03,South,180,3.5,3.5,99,0.00,CLR,SKC,0.00,WeatherDisplay:10.37,2013-03-18 07:33:00,
2013-03-18 03:38:00,38.3,38.0,29.03,East,90,3.5,0.0,99,0.00,CLR,SKC,0.00,WeatherDisplay:10.37,2013-03-18 07:38:00,
2013-03-18 03:43:00,38.3,38.0,29.04,SE,135,2.3,0.0,99,0.00,CLR,SKC,0.00,WeatherDisplay:10.37,2013-03-18 07:43:00,
2013-03-18 03:48:00,38.3,38.0,29.03,South,180,2.3,2.3,99,0.00,CLR,SKC,0.00,WeatherDisplay:10.37,2013-03-18 07:48:00,
2013-03-18 03:53:00,38.3,38.0,29.04,North,0,2.3,0.0,99,0.00,CLR,SKC,0.00,WeatherDisplay:10.37,2013-03-18 07:53:00,
2013-03-18 03:58:00,38.3,38.0,29.03,East,90,1.1,0.0,99,0.00,CLR,SKC,0.00,WeatherDisplay:10.37,2013-03-18 07:58:00,
2013-03-18 04:03:00,38.3,38.0,29.03,NE,45,1.1,0.0,99,0.00,CLR,SKC,0.00,WeatherDisplay:10.37,2013-03-18 08:03:00,
2013-03-18 04:08:00,38.1,37.9,29.04,South,180,0.0,0.0,99,0.00,CLR,SKC,0.00,WeatherDisplay:10.37,2013-03-18 08:08:00,
2013-03-18 04:13:00,38.1,37.9,29.03,NE,45,1.1,1.1,99,0.00,CLR,SKC,0.00,WeatherDisplay:10.37,2013-03-18 08:13:00,
2013-03-18 04:18:00,38.1,37.9,29.03,East,90,3.5,3.5,99,0.00,CLR,SKC,0.00,WeatherDisplay:10.37,2013-03-18 08:18:00,
2013-03-18 04:23:00,38.1,37.9,29.03,NE,45,2.3,2.3,99,0.00,CLR,SKC,0.00,WeatherDisplay:10.37,2013-03-18 08:23:00,
2013-03-18 04:28:00,37.9,37.7,29.03,North,0,2.3,2.3,99,0.00,CLR,SKC,0.00,WeatherDisplay:10.37,2013-03-18 08:28:00,
2013-03-18 04:33:00,38.1,37.9,29.03,North,0,1.1,0.0,99,0.00,CLR,SKC,0.00,WeatherDisplay:10.37,2013-03-18 08:33:00,
2013-03-18 04:38:00,37.9,37.7,29.03,South,180,1.1,1.1,99,0.00,CLR,SKC,0.00,WeatherDisplay:10.37,2013-03-18 08:38:00,
2013-03-18 04:43:00,37.9,37.7,29.02,NE,45,1.1,0.0,99,0.00,CLR,SKC,0.00,WeatherDisplay:10.37,2013-03-18 08:43:00,
2013-03-18 04:48:00,37.9,37.7,29.03,East,90,1.1,0.0,99,0.00,CLR,SKC,0.00,WeatherDisplay:10.37,2013-03-18 08:48:00,
2013-03-18 04:53:00,37.9,37.7,29.04,South,180,2.3,0.0,99,0.00,CLR,SKC,0.00,WeatherDisplay:10.37,2013-03-18 08:53:00,
2013-03-18 04:58:00,37.9,37.7,29.03,South,180,1.1,0.0,99,0.00,CLR,SKC,0.00,WeatherDisplay:10.37,2013-03-18 08:58:00,
2013-03-18 05:03:00,37.9,37.7,29.03,South,180,1.1,0.0,99,0.00,CLR,SKC,0.00,WeatherDisplay:10.37,2013-03-18 09:03:00,
2013-03-18 05:08:00,37.9,37.7,29.04,NE,45,1.1,0.0,99,0.00,CLR,SKC,0.00,WeatherDisplay:10.37,2013-03-18 09:08:00,
2013-03-18 05:13:00,37.8,37.5,29.03,SE,135,1.1,0.0,99,0.00,CLR,SKC,0.00,WeatherDisplay:10.37,2013-03-18 09:13:00,
2013-03-18 05:18:00,37.8,37.5,29.04,SW,225,1.1,0.0,99,0.00,CLR,SKC,0.00,WeatherDisplay:10.37,2013-03-18 09:18:00,
2013-03-18 05:23:00,37.8,37.5,29.04,SE,135,1.1,0.0,99,0.00,CLR,SKC,0.00,WeatherDisplay:10.37,2013-03-18 09:23:00,
2013-03-18 05:28:00,37.8,37.5,29.04,SSE,158,1.1,0.0,99,0.00,CLR,SKC,0.00,WeatherDisplay:10.37,2013-03-18 09:28:00,
2013-03-18 05:33:00,37.8,37.5,29.04,SE,135,1.1,0.0,99,0.00,CLR,SKC,0.00,WeatherDisplay:10.37,2013-03-18 09:33:00,
2013-03-18 05:38:00,37.8,37.5,29.04,SSE,158,2.3,2.3,99,0.00,CLR,SKC,0.00,WeatherDisplay:10.37,2013-03-18 09:38:00,
2013-03-18 05:43:00,37.6,37.3,29.05,South,180,1.1,0.0,99,0.00,CLR,SKC,0.00,WeatherDisplay:10.37,2013-03-18 09:43:00,
2013-03-18 05:48:00,37.6,37.3,29.04,North,0,1.1,0.0,99,0.00,CLR,SKC,0.00,WeatherDisplay:10.37,2013-03-18 09:48:00,
2013-03-18 05:53:00,37.6,37.3,29.04,NE,45,1.1,0.0,99,0.00,CLR,SKC,0.00,WeatherDisplay:10.37,2013-03-18 09:53:00,
2013-03-18 05:58:00,37.4,37.1,29.04,South,180,1.1,0.0,99,0.00,CLR,SKC,0.00,WeatherDisplay:10.37,2013-03-18 09:58:00,
2013-03-18 06:03:00,37.4,37.1,29.04,North,0,0.0,0.0,99,0.00,CLR,SKC,0.00,WeatherDisplay:10.37,2013-03-18 10:03:00,
2013-03-18 06:08:00,37.4,37.1,29.05,East,90,1.1,0.0,99,0.00,CLR,SKC,0.00,WeatherDisplay:10.37,2013-03-18 10:08:00,
2013-03-18 06:13:00,37.4,37.1,29.04,SE,135,1.1,0.0,99,0.00,CLR,SKC,0.00,WeatherDisplay:10.37,2013-03-18 10:13:00,
2013-03-18 06:18:00,37.4,37.1,29.04,South,180,1.1,0.0,99,0.00,CLR,SKC,0.00,WeatherDisplay:10.37,2013-03-18 10:18:00,
2013-03-18 06:23:00,37.4,37.1,29.04,SW,225,1.1,0.0,99,0.00,CLR,SKC,0.00,WeatherDisplay:10.37,2013-03-18 10:23:00,
2013-03-18 06:29:00,37.4,37.1,29.04,North,0,1.1,0.0,99,0.00,CLR,SKC,0.00,WeatherDisplay:10.37,2013-03-18 10:29:00,
2013-03-18 06:34:00,37.4,37.1,29.04,North,0,1.1,0.0,99,0.00,CLR,SKC,0.00,WeatherDisplay:10.37,2013-03-18 10:34:00,
2013-03-18 06:39:00,37.4,37.1,29.04,SE,135,1.1,0.0,99,0.00,CLR,SKC,0.00,WeatherDisplay:10.37,2013-03-18 10:39:00,
2013-03-18 06:44:00,37.4,37.1,29.04,North,0,2.3,0.0,99,0.00,CLR,SKC,0.00,WeatherDisplay:10.37,2013-03-18 10:44:00,
2013-03-18 06:49:00,37.4,37.1,29.05,NE,45,1.1,0.0,99,0.00,CLR,SKC,0.00,WeatherDisplay:10.37,2013-03-18 10:49:00,
2013-03-18 06:54:00,37.4,37.1,29.05,SW,225,1.1,0.0,99,0.00,CLR,SKC,0.00,WeatherDisplay:10.37,2013-03-18 10:54:00,
2013-03-18 06:59:00,37.4,37.1,29.05,South,180,1.1,0.0,99,0.00,CLR,SKC,0.00,WeatherDisplay:10.37,2013-03-18 10:59:00,
2013-03-18 07:04:00,37.4,37.1,29.04,North,0,1.1,0.0,99,0.00,CLR,SKC,0.00,WeatherDisplay:10.37,2013-03-18 11:04:00,
2013-03-18 07:09:00,37.4,36.9,29.04,SSE,158,1.1,0.0,98,0.00,CLR,SKC,0.00,WeatherDisplay:10.37,2013-03-18 11:09:00,
2013-03-18 07:14:00,37.4,36.9,29.05,NE,45,2.3,0.0,98,0.00,CLR,SKC,0.00,WeatherDisplay:10.37,2013-03-18 11:14:00,
2013-03-18 07:19:00,37.4,36.6,29.05,East,90,1.1,0.0,97,0.00,CLR,SKC,0.00,WeatherDisplay:10.37,2013-03-18 11:19:00,
2013-03-18 07:24:00,37.4,36.6,29.05,SE,135,1.1,0.0,97,0.00,CLR,SKC,0.00,WeatherDisplay:10.37,2013-03-18 11:24:00,
2013-03-18 07:29:00,37.4,36.6,29.05,South,180,1.1,0.0,97,0.00,CLR,SKC,0.00,WeatherDisplay:10.37,2013-03-18 11:29:00,
2013-03-18 07:34:00,37.4,36.6,29.05,NE,45,1.6,0.0,97,0.00,CLR,SKC,0.00,WeatherDisplay:10.37,2013-03-18 11:34:00,
2013-03-18 07:39:00,37.4,36.6,29.06,NE,45,1.1,0.0,97,0.00,CLR,SKC,0.00,WeatherDisplay:10.37,2013-03-18 11:39:00,
2013-03-18 07:44:00,37.4,36.6,29.06,South,180,1.1,0.0,97,0.00,CLR,SKC,0.00,WeatherDisplay:10.37,2013-03-18 11:44:00,
2013-03-18 07:49:00,37.4,36.6,29.06,NE,45,1.1,0.0,97,0.00,CLR,SKC,0.00,WeatherDisplay:10.37,2013-03-18 11:49:00,
2013-03-18 07:54:00,37.2,36.4,29.06,South,180,1.1,0.0,97,0.00,CLR,SKC,0.00,WeatherDisplay:10.37,2013-03-18 11:54:00,
2013-03-18 07:59:00,37.2,36.4,29.06,NE,45,2.3,2.3,97,0.00,CLR,SKC,0.00,WeatherDisplay:10.37,2013-03-18 11:59:00,
2013-03-18 08:04:00,37.0,36.5,29.06,West,270,1.1,0.0,98,0.00,CLR,SKC,0.00,WeatherDisplay:10.37,2013-03-18 12:04:00,
2013-03-18 08:09:00,37.2,36.7,29.05,North,0,1.1,0.0,98,0.00,CLR,SKC,0.00,WeatherDisplay:10.37,2013-03-18 12:09:00,
2013-03-18 08:14:00,37.0,36.5,29.05,NE,45,1.1,0.0,98,0.00,CLR,SKC,0.00,WeatherDisplay:10.37,2013-03-18 12:14:00,
2013-03-18 08:19:00,37.0,36.8,29.06,North,0,1.1,1.1,99,0.00,CLR,SKC,0.00,WeatherDisplay:10.37,2013-03-18 12:19:00,
2013-03-18 08:24:00,37.0,36.8,29.07,North,0,1.1,0.0,99,0.00,CLR,SKC,0.00,WeatherDisplay:10.37,2013-03-18 12:24:00,
2013-03-18 08:29:00,37.0,36.8,29.07,North,0,1.1,0.0,99,0.00,CLR,SKC,0.00,WeatherDisplay:10.37,2013-03-18 12:29:00,
2013-03-18 08:34:00,37.0,36.8,29.06,North,0,2.3,0.0,99,0.00,CLR,SKC,0.00,WeatherDisplay:10.37,2013-03-18 12:34:00,
2013-03-18 08:39:00,37.0,36.8,29.07,North,0,1.1,0.0,99,0.00,CLR,SKC,0.00,WeatherDisplay:10.37,2013-03-18 12:39:00,
2013-03-18 08:44:00,37.0,36.8,29.07,NE,45,1.1,0.0,99,0.00,CLR,SKC,0.00,WeatherDisplay:10.37,2013-03-18 12:44:00,
2013-03-18 08:49:00,37.0,36.8,29.07,NE,45,1.1,0.0,99,0.00,CLR,SKC,0.00,WeatherDisplay:10.37,2013-03-18 12:49:00,
2013-03-18 08:54:00,37.2,37.0,29.07,South,180,1.1,0.0,99,0.00,CLR,SKC,0.00,WeatherDisplay:10.37,2013-03-18 12:54:00,
2013-03-18 08:59:00,37.2,37.0,29.06,North,0,1.1,0.0,99,0.00,CLR,SKC,0.00,WeatherDisplay:10.37,2013-03-18 12:59:00,
2013-03-18 09:04:00,37.4,37.1,29.06,South,180,1.1,0.0,99,0.00,CLR,SKC,0.00,WeatherDisplay:10.37,2013-03-18 13:04:00,
2013-03-18 09:09:00,37.4,37.1,29.06,NE,45,1.1,0.0,99,0.00,CLR,SKC,0.00,WeatherDisplay:10.37,2013-03-18 13:09:00,
2013-03-18 09:14:00,37.4,37.1,29.05,North,0,1.6,0.0,99,0.00,CLR,SKC,0.00,WeatherDisplay:10.37,2013-03-18 13:14:00,
2013-03-18 09:19:00,37.4,37.1,29.06,East,90,1.1,1.1,99,0.00,CLR,SKC,0.00,WeatherDisplay:10.37,2013-03-18 13:19:00,
2013-03-18 09:24:00,37.4,37.1,29.06,NE,45,1.1,0.0,99,0.00,CLR,SKC,0.00,WeatherDisplay:10.37,2013-03-18 13:24:00,
2013-03-18 09:29:00,37.6,37.3,29.05,East,90,1.1,0.0,99,0.00,CLR,SKC,0.00,WeatherDisplay:10.37,2013-03-18 13:29:00,
2013-03-18 09:34:00,37.6,37.3,29.05,North,0,1.1,0.0,99,0.01,RA,SKC,0.01,WeatherDisplay:10.37,2013-03-18 13:34:00,
2013-03-18 09:39:00,37.6,37.3,29.04,SE,135,1.1,1.1,99,0.01,RA,SKC,0.01,WeatherDisplay:10.37,2013-03-18 13:39:00,
2013-03-18 09:44:00,37.6,37.3,29.04,SW,225,1.1,0.0,99,0.01,CLR,SKC,0.01,WeatherDisplay:10.37,2013-03-18 13:44:00,
2013-03-18 09:49:00,37.8,37.5,29.04,South,180,1.1,1.1,99,0.01,,SKC,0.01,WeatherDisplay:10.37,2013-03-18 13:49:00,
2013-03-18 09:54:00,37.8,37.5,29.05,East,90,1.1,0.0,99,0.01,,SKC,0.01,WeatherDisplay:10.37,2013-03-18 13:54:00,
2013-03-18 09:59:00,37.9,37.7,29.04,NW,315,1.1,0.0,99,0.01,,SKC,0.01,WeatherDisplay:10.37,2013-03-18 13:59:00,
2013-03-18 10:04:00,37.9,37.7,29.05,SW,225,1.1,0.0,99,0.01,,SKC,0.01,WeatherDisplay:10.37,2013-03-18 14:04:00,
2013-03-18 10:09:00,38.1,37.9,29.04,SW,225,1.1,0.0,99,0.01,,SKC,0.01,WeatherDisplay:10.37,2013-03-18 14:09:00,
2013-03-18 10:14:00,37.9,37.7,29.04,NE,45,1.1,0.0,99,0.01,,SKC,0.01,WeatherDisplay:10.37,2013-03-18 14:14:00,
2013-03-18 10:19:00,38.1,37.9,29.03,SE,135,1.1,0.0,99,0.01,,SKC,0.01,WeatherDisplay:10.37,2013-03-18 14:19:00,
2013-03-18 10:24:00,37.9,37.7,29.04,North,0,1.1,0.0,99,0.01,,SKC,0.01,WeatherDisplay:10.37,2013-03-18 14:24:00,
2013-03-18 10:29:00,37.9,37.7,29.04,North,0,0.0,0.0,99,0.01,,SKC,0.01,WeatherDisplay:10.37,2013-03-18 14:29:00,
2013-03-18 10:34:00,37.9,37.7,29.04,NE,45,1.1,0.0,99,0.00,,SKC,0.01,WeatherDisplay:10.37,2013-03-18 14:34:00,
2013-03-18 10:39:00,37.9,37.7,29.05,SE,135,1.1,0.0,99,0.00,,SKC,0.01,WeatherDisplay:10.37,2013-03-18 14:39:00,
2013-03-18 10:44:00,38.1,37.9,29.05,North,0,1.1,0.0,99,0.00,,SKC,0.01,WeatherDisplay:10.37,2013-03-18 14:44:00,
2013-03-18 10:49:00,37.9,37.7,29.05,East,90,0.0,0.0,99,0.00,,SKC,0.01,WeatherDisplay:10.37,2013-03-18 14:49:00,
2013-03-18 10:54:00,38.1,37.9,29.05,SE,135,1.1,0.0,99,0.00,,SKC,0.01,WeatherDisplay:10.37,2013-03-18 14:54:00,
2013-03-18 10:59:00,38.3,38.0,29.05,NE,45,0.0,0.0,99,0.00,,SKC,0.01,WeatherDisplay:10.37,2013-03-18 14:59:00,
2013-03-18 11:04:00,38.1,37.9,29.05,SE,135,1.1,0.0,99,0.00,,SKC,0.01,WeatherDisplay:10.37,2013-03-18 15:04:00,
2013-03-18 11:10:00,38.1,37.9,29.05,South,180,1.1,0.0,99,0.00,,SKC,0.01,WeatherDisplay:10.37,2013-03-18 15:10:00,
2013-03-18 11:15:00,38.1,37.9,29.05,South,180,1.1,0.0,99,0.00,,SKC,0.01,WeatherDisplay:10.37,2013-03-18 15:15:00,
2013-03-18 11:20:00,38.1,37.9,29.04,NE,45,1.1,0.0,99,0.00,,SKC,0.01,WeatherDisplay:10.37,2013-03-18 15:20:00,
2013-03-18 11:25:00,38.3,38.0,29.04,South,180,1.1,0.0,99,0.00,,SKC,0.01,WeatherDisplay:10.37,2013-03-18 15:25:00,
2013-03-18 11:30:00,38.3,38.0,29.04,SE,135,0.0,0.0,99,0.00,,SKC,0.01,WeatherDisplay:10.37,2013-03-18 15:30:00,
2013-03-18 11:35:00,38.3,38.0,29.03,SE,135,1.1,0.0,99,0.00,,SKC,0.01,WeatherDisplay:10.37,2013-03-18 15:35:00,
2013-03-18 11:40:00,38.3,38.0,29.03,South,180,1.1,0.0,99,0.00,,SKC,0.01,WeatherDisplay:10.37,2013-03-18 15:40:00,
2013-03-18 11:45:00,38.3,38.0,29.03,South,180,1.1,0.0,99,0.00,,SKC,0.01,WeatherDisplay:10.37,2013-03-18 15:45:00,
2013-03-18 11:50:00,38.3,38.0,29.04,SW,225,1.1,0.0,99,0.00,,SKC,0.01,WeatherDisplay:10.37,2013-03-18 15:50:00,
2013-03-18 11:55:00,38.5,38.2,29.04,NW,315,1.1,0.0,99,0.00,,SKC,0.01,WeatherDisplay:10.37,2013-03-18 15:55:00,
2013-03-18 12:00:00,38.7,38.4,29.03,NE,45,1.1,0.0,99,0.00,,SKC,0.01,WeatherDisplay:10.37,2013-03-18 16:00:00,
2013-03-18 12:05:00,38.7,38.4,29.03,South,180,1.1,0.0,99,0.00,,SKC,0.01,WeatherDisplay:10.37,2013-03-18 16:05:00,
2013-03-18 12:10:00,38.8,38.6,29.03,North,0,1.1,0.0,99,0.00,,SKC,0.01,WeatherDisplay:10.37,2013-03-18 16:10:00,
2013-03-18 12:15:00,39.0,38.8,29.02,East,90,1.1,0.0,99,0.00,,SKC,0.01,WeatherDisplay:10.37,2013-03-18 16:15:00,
2013-03-18 12:20:00,39.2,38.9,29.02,East,90,1.1,0.0,99,0.00,,SKC,0.01,WeatherDisplay:10.37,2013-03-18 16:20:00,
2013-03-18 12:25:00,39.4,38.9,29.02,SE,135,1.1,0.0,98,0.00,,SKC,0.01,WeatherDisplay:10.37,2013-03-18 16:25:00,
2013-03-18 12:30:00,39.4,38.9,29.01,South,180,1.1,0.0,98,0.00,,SKC,0.01,WeatherDisplay:10.37,2013-03-18 16:30:00,
2013-03-18 12:35:00,39.6,39.0,29.01,NE,45,0.0,0.0,98,0.00,,SKC,0.01,WeatherDisplay:10.37,2013-03-18 16:35:00,
2013-03-18 12:40:00,39.2,38.7,29.01,NW,315,1.1,0.0,98,0.00,,SKC,0.01,WeatherDisplay:10.37,2013-03-18 16:40:00,
2013-03-18 12:45:00,39.6,38.8,29.01,SE,135,0.0,0.0,97,0.00,,SKC,0.01,WeatherDisplay:10.37,2013-03-18 16:45:00,
2013-03-18 12:50:00,39.6,38.8,29.00,North,0,1.1,0.0,97,0.00,,SKC,0.01,WeatherDisplay:10.37,2013-03-18 16:50:00,
2013-03-18 12:55:00,39.7,39.0,29.00,South,180,1.1,0.0,97,0.00,,SKC,0.01,WeatherDisplay:10.37,2013-03-18 16:55:00,
2013-03-18 13:00:00,39.9,38.9,29.00,South,180,1.1,0.0,96,0.00,,SKC,0.01,WeatherDisplay:10.37,2013-03-18 17:00:00,
2013-03-18 13:05:00,39.9,38.9,28.99,NE,45,1.1,0.0,96,0.00,,SKC,0.01,WeatherDisplay:10.37,2013-03-18 17:05:00,
2013-03-18 13:10:00,39.9,38.9,29.00,North,0,0.0,0.0,96,0.00,,SKC,0.01,WeatherDisplay:10.37,2013-03-18 17:10:00,
2013-03-18 13:15:00,39.7,38.7,29.00,North,0,0.0,0.0,96,0.00,,SKC,0.01,WeatherDisplay:10.37,2013-03-18 17:15:00,
2013-03-18 13:20:00,39.7,38.7,28.98,NW,315,1.1,0.0,96,0.00,,SKC,0.01,WeatherDisplay:10.37,2013-03-18 17:20:00,
2013-03-18 13:25:00,39.7,38.7,28.98,South,180,1.1,0.0,96,0.00,,SKC,0.01,WeatherDisplay:10.37,2013-03-18 17:25:00,
2013-03-18 13:30:00,39.7,38.7,28.99,NW,315,1.1,0.0,96,0.00,,SKC,0.01,WeatherDisplay:10.37,2013-03-18 17:30:00,
2013-03-18 13:35:00,39.6,38.5,28.99,NW,315,1.1,0.0,96,0.00,,SKC,0.01,WeatherDisplay:10.37,2013-03-18 17:35:00,
2013-03-18 13:40:00,39.7,38.7,28.99,NW,315,0.0,0.0,96,0.00,,SKC,0.01,WeatherDisplay:10.37,2013-03-18 17:40:00,
2013-03-18 13:45:00,39.9,38.9,28.98,NE,45,0.0,0.0,96,0.00,,SKC,0.01,WeatherDisplay:10.37,2013-03-18 17:45:00,
2013-03-18 13:50:00,39.9,38.6,28.97,South,180,0.0,0.0,95,0.00,,SKC,0.01,WeatherDisplay:10.37,2013-03-18 17:50:00,
2013-03-18 13:55:00,39.9,38.9,28.97,North,0,0.0,0.0,96,0.00,,SKC,0.01,WeatherDisplay:10.37,2013-03-18 17:55:00,
2013-03-18 14:00:00,39.9,38.6,28.97,North,0,1.1,0.0,95,0.00,,SKC,0.01,WeatherDisplay:10.37,2013-03-18 18:00:00,
2013-03-18 14:05:00,39.9,38.6,28.96,NW,315,1.1,0.0,95,0.00,,SKC,0.01,WeatherDisplay:10.37,2013-03-18 18:05:00,
2013-03-18 14:10:00,39.9,38.6,28.96,WSW,252,0.0,2.0,95,0.00,,SKC,0.01,WeatherDisplay:10.37,2013-03-18 18:10:00,
2013-03-18 14:15:00,39.9,38.6,28.95,SE,135,1.1,0.0,95,0.00,,SKC,0.01,WeatherDisplay:10.37,2013-03-18 18:15:00,
2013-03-18 14:20:00,40.1,38.8,28.94,SE,139,0.0,1.0,95,0.00,,SKC,0.01,WeatherDisplay:10.37,2013-03-18 18:20:00,
2013-03-18 14:25:00,40.5,38.9,28.94,North,0,0.0,0.0,94,0.00,,SKC,0.01,WeatherDisplay:10.37,2013-03-18 18:25:00,
2013-03-18 14:30:00,40.4,38.5,28.95,NNW,329,0.0,1.0,93,0.00,,SKC,0.01,WeatherDisplay:10.37,2013-03-18 18:30:00,
2013-03-18 14:35:00,40.5,38.6,28.94,South,180,0.0,0.0,93,0.00,,SKC,0.01,WeatherDisplay:10.37,2013-03-18 18:35:00,
2013-03-18 14:40:00,40.3,38.4,28.93,South,187,0.0,2.0,93,0.00,,SKC,0.01,WeatherDisplay:10.37,2013-03-18 18:40:00,
2013-03-18 14:45:00,40.3,38.7,28.94,South,180,0.0,0.0,94,0.00,,SKC,0.01,WeatherDisplay:10.37,2013-03-18 18:45:00,
2013-03-18 14:50:00,40.3,38.7,28.95,South,180,0.0,0.0,94,0.00,,SKC,0.01,WeatherDisplay:10.37,2013-03-18 18:50:00,
2013-03-18 14:55:00,40.3,38.7,28.94,North,0,1.1,0.0,94,0.00,,SKC,0.01,WeatherDisplay:10.37,2013-03-18 18:55:00,
2013-03-18 15:00:00,40.3,38.7,28.92,South,180,0.0,0.0,94,0.00,,SKC,0.01,WeatherDisplay:10.37,2013-03-18 19:00:00,
2013-03-18 15:05:00,40.3,38.7,28.92,SE,135,1.1,0.0,94,0.00,,SKC,0.01,WeatherDisplay:10.37,2013-03-18 19:05:00,
2013-03-18 15:10:00,40.5,38.6,28.92,South,180,0.0,0.0,93,0.00,,SKC,0.01,WeatherDisplay:10.37,2013-03-18 19:10:00,
2013-03-18 15:15:00,40.6,38.8,28.92,North,0,1.1,0.0,93,0.00,,SKC,0.01,WeatherDisplay:10.37,2013-03-18 19:15:00,
2013-03-18 15:20:00,40.6,38.8,28.91,South,180,0.0,0.0,93,0.00,,SKC,0.01,WeatherDisplay:10.37,2013-03-18 19:20:00,
2013-03-18 15:25:00,40.5,38.3,28.90,South,180,0.0,0.0,92,0.00,,SKC,0.01,WeatherDisplay:10.37,2013-03-18 19:25:00,
2013-03-18 15:30:00,40.5,38.6,28.91,SW,225,1.1,0.0,93,0.00,,SKC,0.01,WeatherDisplay:10.37,2013-03-18 19:30:00,
2013-03-18 15:35:00,40.5,38.6,28.91,South,180,1.1,0.0,93,0.00,,SKC,0.01,WeatherDisplay:10.37,2013-03-18 19:35:00,
2013-03-18 15:40:00,40.3,38.7,28.91,South,180,0.0,0.0,94,0.00,,SKC,0.01,WeatherDisplay:10.37,2013-03-18 19:40:00,
2013-03-18 15:45:00,40.1,38.5,28.92,South,180,1.1,0.0,94,0.00,,SKC,0.01,WeatherDisplay:10.37,2013-03-18 19:45:00,
2013-03-18 15:50:00,40.1,38.5,28.90,NE,45,1.1,0.0,94,0.00,,SKC,0.01,WeatherDisplay:10.37,2013-03-18 19:50:00,
2013-03-18 15:55:00,40.1,38.5,28.90,SW,225,0.0,0.0,94,0.00,,SKC,0.01,WeatherDisplay:10.37,2013-03-18 19:55:00,
2013-03-18 16:00:00,40.3,39.0,28.89,South,180,1.1,0.0,95,0.00,,SKC,0.01,WeatherDisplay:10.37,2013-03-18 20:00:00,
2013-03-18 16:05:00,40.3,39.0,28.91,South,180,0.0,0.0,95,0.00,,SKC,0.01,WeatherDisplay:10.37,2013-03-18 20:05:00,
2013-03-18 16:10:00,39.7,38.7,28.90,South,180,1.1,0.0,96,0.00,,SKC,0.01,WeatherDisplay:10.37,2013-03-18 20:10:00,
2013-03-18 16:15:00,39.6,38.5,28.90,North,0,1.1,0.0,96,0.00,,SKC,0.01,WeatherDisplay:10.37,2013-03-18 20:15:00,
2013-03-18 16:20:00,39.4,38.6,28.89,South,180,1.1,0.0,97,0.00,,SKC,0.01,WeatherDisplay:10.37,2013-03-18 20:20:00,
2013-03-18 16:25:00,39.6,38.8,28.90,NW,315,1.1,0.0,97,0.00,,SKC,0.01,WeatherDisplay:10.37,2013-03-18 20:25:00,
2013-03-18 16:30:00,39.4,38.9,28.91,North,0,1.1,0.0,98,0.00,,SKC,0.01,WeatherDisplay:10.37,2013-03-18 20:30:00,
2013-03-18 16:36:00,39.2,38.7,28.90,North,0,2.3,2.3,98,0.01,RA,SKC,0.02,WeatherDisplay:10.37,2013-03-18 20:36:00,
2013-03-18 16:41:00,39.0,38.8,28.92,NW,315,2.3,0.0,99,0.01,RA,SKC,0.02,WeatherDisplay:10.37,2013-03-18 20:41:00,
2013-03-18 16:46:00,39.0,38.8,28.92,North,0,2.3,0.0,99,0.01,,SKC,0.02,WeatherDisplay:10.37,2013-03-18 20:46:00,
2013-03-18 16:51:00,39.0,38.8,28.91,East,90,1.1,0.0,99,0.01,,SKC,0.02,WeatherDisplay:10.37,2013-03-18 20:51:00,
2013-03-18 16:56:00,39.0,38.8,28.89,South,180,1.1,0.0,99,0.01,,SKC,0.02,WeatherDisplay:10.37,2013-03-18 20:56:00,
2013-03-18 17:01:00,39.0,38.8,28.89,South,180,1.1,0.0,99,0.01,,SKC,0.04,WeatherDisplay:10.37,2013-03-18 21:01:00,
2013-03-18 17:06:00,39.0,38.8,28.87,South,180,0.0,0.0,99,0.02,RA,SKC,0.05,WeatherDisplay:10.37,2013-03-18 21:06:00,
2013-03-18 17:11:00,38.8,38.6,28.87,South,180,2.3,2.3,99,0.05,RA,SKC,0.06,WeatherDisplay:10.37,2013-03-18 21:11:00,
2013-03-18 17:16:00,38.7,38.4,28.89,North,0,2.3,0.0,99,0.05,RA,SKC,0.06,WeatherDisplay:10.37,2013-03-18 21:16:00,
2013-03-18 17:21:00,38.7,38.4,28.88,South,180,1.1,0.0,99,0.06,RA,SKC,0.07,WeatherDisplay:10.37,2013-03-18 21:21:00,
2013-03-18 17:26:00,38.7,38.4,28.89,South,180,1.1,0.0,99,0.06,RA,SKC,0.07,WeatherDisplay:10.37,2013-03-18 21:26:00,
2013-03-18 17:31:00,39.0,38.8,28.89,North,0,1.1,0.0,99,0.06,RA,SKC,0.08,WeatherDisplay:10.37,2013-03-18 21:31:00,
2013-03-18 17:36:00,39.0,38.8,28.90,North,0,1.1,0.0,99,0.06,RA,SKC,0.08,WeatherDisplay:10.37,2013-03-18 21:36:00,
2013-03-18 17:41:00,38.8,38.6,28.90,NE,45,1.1,0.0,99,0.06,,SKC,0.08,WeatherDisplay:10.37,2013-03-18 21:41:00,
2013-03-18 17:46:00,38.7,38.4,28.91,North,0,1.1,0.0,99,0.06,,SKC,0.08,WeatherDisplay:10.37,2013-03-18 21:46:00,
2013-03-18 17:52:00,38.7,38.4,28.92,NE,45,0.0,0.0,99,0.06,,SKC,0.08,WeatherDisplay:10.37,2013-03-18 21:52:00,
2013-03-18 17:57:00,38.8,38.6,28.96,SW,225,1.1,0.0,99,0.07,RA,SKC,0.09,WeatherDisplay:10.37,2013-03-18 21:57:00,
2013-03-18 18:02:00,38.8,38.6,28.92,SE,135,1.1,0.0,99,0.09,RA,SKC,0.13,WeatherDisplay:10.37,2013-03-18 22:02:00,
2013-03-18 18:07:00,38.5,38.2,28.92,North,0,1.1,1.1,99,0.12,RA,SKC,0.17,WeatherDisplay:10.37,2013-03-18 22:07:00,
2013-03-18 18:12:00,38.5,38.2,28.91,SSE,158,1.1,1.1,99,0.12,RA,SKC,0.19,WeatherDisplay:10.37,2013-03-18 22:12:00,
2013-03-18 18:17:00,38.5,38.2,28.91,SSE,158,1.1,1.1,99,0.13,RA,SKC,0.19,WeatherDisplay:10.37,2013-03-18 22:17:00,
2013-03-18 18:22:00,38.5,38.2,28.91,South,180,1.1,0.0,99,0.14,RA,SKC,0.21,WeatherDisplay:10.37,2013-03-18 22:22:00,
2013-03-18 18:27:00,38.5,38.2,28.92,NW,315,1.1,0.0,99,0.15,RA,SKC,0.22,WeatherDisplay:10.37,2013-03-18 22:27:00,
2013-03-18 18:32:00,38.5,38.2,28.92,NW,315,0.0,0.0,99,0.14,RA,SKC,0.22,WeatherDisplay:10.37,2013-03-18 22:32:00,
2013-03-18 18:37:00,38.5,38.2,28.92,North,0,1.1,0.0,99,0.18,RA,SKC,0.26,WeatherDisplay:10.37,2013-03-18 22:37:00,
2013-03-18 18:42:00,38.3,38.0,28.93,SE,135,1.1,0.0,99,0.19,RA,SKC,0.27,WeatherDisplay:10.37,2013-03-18 22:42:00,
2013-03-18 18:47:00,38.3,38.0,28.92,East,90,1.1,0.0,99,0.20,RA,SKC,0.28,WeatherDisplay:10.37,2013-03-18 22:47:00,
2013-03-18 18:53:00,38.3,38.0,28.92,North,0,1.1,0.0,99,0.20,RA,SKC,0.28,WeatherDisplay:10.37,2013-03-18 22:53:00,
2013-03-18 18:58:00,38.1,37.9,28.93,North,0,1.1,1.1,99,0.19,,SKC,0.28,WeatherDisplay:10.37,2013-03-18 22:58:00,
2013-03-18 19:03:00,37.9,37.7,28.93,South,180,1.1,0.0,99,0.15,,SKC,0.28,WeatherDisplay:10.37,2013-03-18 23:03:00,
2013-03-18 19:08:00,37.9,37.7,28.92,South,180,0.0,0.0,99,0.12,,SKC,0.28,WeatherDisplay:10.37,2013-03-18 23:08:00,
2013-03-18 19:13:00,37.8,37.5,28.92,North,0,1.1,0.0,99,0.11,,SKC,0.28,WeatherDisplay:10.37,2013-03-18 23:13:00,
2013-03-18 19:18:00,37.8,37.5,28.92,North,0,1.1,0.0,99,0.09,,SKC,0.28,WeatherDisplay:10.37,2013-03-18 23:18:00,
2013-03-18 19:23:00,37.8,37.5,28.91,North,0,1.1,0.0,99,0.07,,SKC,0.28,WeatherDisplay:10.37,2013-03-18 23:23:00,
2013-03-18 19:28:00,37.8,37.5,28.92,North,0,1.1,0.0,99,0.07,RA,SKC,0.30,WeatherDisplay:10.37,2013-03-18 23:28:00,
2013-03-18 19:33:00,37.6,37.3,28.91,NE,45,1.1,0.0,99,0.07,RA,SKC,0.30,WeatherDisplay:10.37,2013-03-18 23:33:00,
2013-03-18 19:38:00,37.6,37.3,28.90,North,0,0.0,0.0,99,0.04,,SKC,0.30,WeatherDisplay:10.37,2013-03-18 23:38:00,
2013-03-18 19:43:00,37.6,37.3,28.90,North,0,0.0,0.0,99,0.02,,SKC,0.30,WeatherDisplay:10.37,2013-03-18 23:43:00,
2013-03-18 19:48:00,37.4,37.1,28.89,NW,315,0.0,0.0,99,0.01,,SKC,0.30,WeatherDisplay:10.37,2013-03-18 23:48:00,
2013-03-18 19:53:00,37.4,37.1,28.90,North,0,1.1,0.0,99,0.01,,SKC,0.30,WeatherDisplay:10.37,2013-03-18 23:53:00,
2013-03-18 19:58:00,37.2,37.0,28.90,NE,45,1.1,0.0,99,0.01,,SKC,0.30,WeatherDisplay:10.37,2013-03-18 23:58:00,
2013-03-18 20:03:00,37.2,37.0,28.90,SE,135,0.7,0.0,99,0.01,,SKC,0.30,WeatherDisplay:10.37,2013-03-19 00:03:00,
2013-03-18 20:08:00,37.2,37.0,28.90,North,0,1.1,0.0,99,0.01,,SKC,0.30,WeatherDisplay:10.37,2013-03-19 00:08:00,
2013-03-18 20:13:00,37.2,37.0,28.91,NE,45,0.0,0.0,99,0.01,,SKC,0.30,WeatherDisplay:10.37,2013-03-19 00:13:00,
2013-03-18 20:18:00,37.2,37.0,28.90,North,0,1.1,0.0,99,0.01,,SKC,0.30,WeatherDisplay:10.37,2013-03-19 00:18:00,
2013-03-18 20:23:00,37.2,37.0,28.89,West,270,1.1,0.0,99,0.01,,SKC,0.30,WeatherDisplay:10.37,2013-03-19 00:23:00,
2013-03-18 20:28:00,37.2,37.0,28.88,North,0,1.1,0.0,99,0.00,,SKC,0.30,WeatherDisplay:10.37,2013-03-19 00:28:00,
2013-03-18 20:33:00,37.2,37.0,28.87,South,180,0.0,0.0,99,0.00,,SKC,0.30,WeatherDisplay:10.37,2013-03-19 00:33:00,
2013-03-18 20:38:00,37.2,37.0,28.86,SE,135,0.0,0.0,99,0.00,,SKC,0.30,WeatherDisplay:10.37,2013-03-19 00:38:00,
2013-03-18 20:43:00,37.2,37.0,28.87,SE,135,1.1,0.0,99,0.00,,SKC,0.30,WeatherDisplay:10.37,2013-03-19 00:43:00,
2013-03-18 20:48:00,37.2,37.0,28.85,East,90,1.1,0.0,99,0.00,,SKC,0.30,WeatherDisplay:10.37,2013-03-19 00:48:00,
2013-03-18 20:53:00,37.0,36.8,28.85,South,180,1.1,0.0,99,0.00,,SKC,0.30,WeatherDisplay:10.37,2013-03-19 00:53:00,
2013-03-18 20:58:00,37.0,36.8,28.86,North,0,1.1,0.0,99,0.00,,SKC,0.30,WeatherDisplay:10.37,2013-03-19 00:58:00,
2013-03-18 21:03:00,37.2,37.0,28.88,North,0,0.0,0.0,99,0.00,,SKC,0.30,WeatherDisplay:10.37,2013-03-19 01:03:00,
2013-03-18 21:08:00,37.4,37.1,28.87,North,0,1.1,0.0,99,0.00,,SKC,0.30,WeatherDisplay:10.37,2013-03-19 01:08:00,
2013-03-18 21:13:00,37.4,37.1,28.86,North,0,1.1,0.0,99,0.00,,SKC,0.30,WeatherDisplay:10.37,2013-03-19 01:13:00,
2013-03-18 21:18:00,37.4,37.1,28.87,North,0,1.1,0.0,99,0.00,,SKC,0.30,WeatherDisplay:10.37,2013-03-19 01:18:00,
2013-03-18 21:23:00,37.4,37.1,28.86,North,0,1.1,0.0,99,0.00,,SKC,0.30,WeatherDisplay:10.37,2013-03-19 01:23:00,
2013-03-18 21:28:00,37.4,37.1,28.84,South,180,0.0,0.0,99,0.00,,SKC,0.30,WeatherDisplay:10.37,2013-03-19 01:28:00,
2013-03-18 21:33:00,37.2,37.0,28.81,South,180,1.1,0.0,99,0.00,,SKC,0.30,WeatherDisplay:10.37,2013-03-19 01:33:00,
2013-03-18 21:38:00,37.2,37.0,28.80,South,180,1.1,1.1,99,0.00,,SKC,0.30,WeatherDisplay:10.37,2013-03-19 01:38:00,
2013-03-18 21:43:00,37.4,37.1,28.86,North,0,3.5,3.5,99,0.00,,SKC,0.30,WeatherDisplay:10.37,2013-03-19 01:43:00,
2013-03-18 21:48:00,37.6,37.3,28.87,North,0,2.3,0.0,99,0.00,,SKC,0.30,WeatherDisplay:10.37,2013-03-19 01:48:00,
2013-03-18 21:53:00,37.6,37.3,28.87,North,0,1.1,0.0,99,0.00,,SKC,0.30,WeatherDisplay:10.37,2013-03-19 01:53:00,
2013-03-18 21:58:00,37.6,37.3,28.86,North,0,1.1,0.0,99,0.00,,SKC,0.30,WeatherDisplay:10.37,2013-03-19 01:58:00,
2013-03-18 22:03:00,37.6,37.3,28.86,West,270,1.1,0.0,99,0.00,,SKC,0.30,WeatherDisplay:10.37,2013-03-19 02:03:00,
2013-03-18 22:08:00,37.6,37.3,28.86,North,0,1.1,0.0,99,0.00,,SKC,0.30,WeatherDisplay:10.37,2013-03-19 02:08:00,
2013-03-18 22:13:00,37.4,37.1,28.85,NW,315,2.3,0.0,99,0.00,,SKC,0.30,WeatherDisplay:10.37,2013-03-19 02:13:00,
2013-03-18 22:18:00,37.4,37.1,28.86,North,0,1.1,1.1,99,0.00,,SKC,0.30,WeatherDisplay:10.37,2013-03-19 02:18:00,
2013-03-18 22:23:00,37.6,37.3,28.85,West,270,1.1,0.0,99,0.00,,SKC,0.30,WeatherDisplay:10.37,2013-03-19 02:23:00,
2013-03-18 22:28:00,37.6,37.3,28.84,South,180,1.1,0.0,99,0.00,,SKC,0.30,WeatherDisplay:10.37,2013-03-19 02:28:00,
2013-03-18 22:33:00,37.4,37.1,28.84,SW,225,1.1,0.0,99,0.00,,SKC,0.30,WeatherDisplay:10.37,2013-03-19 02:33:00,
2013-03-18 22:38:00,37.4,37.1,28.83,SW,225,1.1,0.0,99,0.00,,SKC,0.30,WeatherDisplay:10.37,2013-03-19 02:38:00,
2013-03-18 22:43:00,37.4,37.1,28.83,North,0,0.0,0.0,99,0.00,,SKC,0.30,WeatherDisplay:10.37,2013-03-19 02:43:00,
2013-03-18 22:48:00,37.2,37.0,28.84,North,0,1.1,0.0,99,0.00,,SKC,0.30,WeatherDisplay:10.37,2013-03-19 02:48:00,
2013-03-18 22:53:00,37.2,37.0,28.85,North,0,0.0,0.0,99,0.00,,SKC,0.30,WeatherDisplay:10.37,2013-03-19 02:53:00,
2013-03-18 22:58:00,37.2,37.0,28.84,NW,315,1.1,0.0,99,0.00,,SKC,0.30,WeatherDisplay:10.37,2013-03-19 02:58:00,
2013-03-18 23:04:00,37.2,37.0,28.84,NW,315,1.1,0.0,99,0.00,,SKC,0.30,WeatherDisplay:10.37,2013-03-19 03:04:00,
2013-03-18 23:08:00,37.0,36.8,28.84,NW,315,1.1,0.0,99,0.00,,SKC,0.30,WeatherDisplay:10.37,2013-03-19 03:08:00,
2013-03-18 23:14:00,36.9,36.6,28.85,NW,315,1.1,0.0,99,0.00,,SKC,0.30,WeatherDisplay:10.37,2013-03-19 03:14:00,
2013-03-18 23:19:00,36.9,36.6,28.84,NW,315,0.0,0.0,99,0.00,,SKC,0.30,WeatherDisplay:10.37,2013-03-19 03:19:00,
2013-03-18 23:24:00,36.9,36.6,28.84,NW,315,1.1,0.0,99,0.00,,SKC,0.30,WeatherDisplay:10.37,2013-03-19 03:24:00,
2013-03-18 23:29:00,36.9,36.6,28.85,NW,315,1.1,0.0,99,0.00,,SKC,0.30,WeatherDisplay:10.37,2013-03-19 03:29:00,
2013-03-18 23:34:00,36.9,36.6,28.84,NW,315,1.1,0.0,99,0.00,,SKC,0.30,WeatherDisplay:10.37,2013-03-19 03:34:00,
2013-03-18 23:39:00,36.7,35.9,28.83,NW,315,1.1,0.0,97,0.00,,SKC,0.30,WeatherDisplay:10.37,2013-03-19 03:39:00,
2013-03-18 23:44:00,36.7,35.9,28.84,NW,315,1.1,0.0,97,0.00,,SKC,0.30,WeatherDisplay:10.37,2013-03-19 03:44:00,
2013-03-18 23:49:00,36.5,35.7,28.83,NW,315,1.1,0.0,97,0.00,,SKC,0.30,WeatherDisplay:10.37,2013-03-19 03:49:00,
2013-03-18 23:54:00,36.7,35.9,28.84,North,0,1.1,0.0,97,0.00,,SKC,0.30,WeatherDisplay:10.37,2013-03-19 03:54:00,
2013-03-18 23:59:00,36.5,35.7,28.84,North,0,1.1,0.0,97,0.00,,SKC,0.30,WeatherDisplay:10.37,2013-03-19 03:59:00,